Wetterdaten: Woche 06.12.10 - 12.12.10 (KW49)
Datum Zeit Temperatur Luftfeuchte Luftdruck Niederschlag Wind Richtung Sonnenschein Solar Taupunkt Windchill Windben
06.12.2010 00:00 0.4 C 98 % 1005.3 hPa 1.4 l/m 0.0 km/h (0 Bft) N 0.00 h 0 W/m 0.1 C 0.4 C 0.0 km/h (0 Bft)
06.12.2010 01:00 0.2 C 97 % 1004.2 hPa 1.6 l/m 0.0 km/h (0 Bft) N 0.00 h 0 W/m -0.2 C 0.2 C 0.0 km/h (0 Bft)
06.12.2010 02:00 0.2 C 97 % 1003.9 hPa 1.6 l/m 0.0 km/h (0 Bft) N 0.00 h 0 W/m -0.3 C 0.2 C 0.0 km/h (0 Bft)
06.12.2010 03:00 0.2 C 97 % 1003.3 hPa 1.6 l/m 0.0 km/h (0 Bft) N 0.00 h 0 W/m -0.2 C 0.2 C 0.0 km/h (0 Bft)
06.12.2010 04:00 0.2 C 98 % 1002.5 hPa 1.4 l/m 0.0 km/h (0 Bft) N 0.00 h 0 W/m -0.1 C 0.2 C 0.0 km/h (0 Bft)
06.12.2010 05:00 0.2 C 98 % 1001.5 hPa 1.2 l/m 0.0 km/h (0 Bft) N 0.00 h 0 W/m -0.0 C 0.2 C 0.0 km/h (0 Bft)
06.12.2010 06:00 0.4 C 98 % 1000.4 hPa 2.6 l/m 0.0 km/h (0 Bft) N 0.00 h 0 W/m 0.1 C 0.4 C 0.0 km/h (0 Bft)
06.12.2010 07:00 0.6 C 98 % 999.7 hPa 3.6 l/m 0.0 km/h (0 Bft) N 0.00 h 0 W/m 0.3 C 0.6 C 0.0 km/h (0 Bft)
06.12.2010 08:00 0.7 C 98 % 999.7 hPa 4.4 l/m 0.0 km/h (0 Bft) N 0.00 h 5 W/m 0.4 C 0.7 C 0.0 km/h (0 Bft)
06.12.2010 09:00 0.9 C 98 % 999.5 hPa 3.4 l/m 0.0 km/h (0 Bft) N 0.00 h 7 W/m 0.6 C 0.9 C 0.0 km/h (0 Bft)
06.12.2010 10:00 1.2 C 98 % 999.5 hPa 3.8 l/m 0.1 km/h (0 Bft) O-SO 0.00 h 21 W/m 0.9 C 1.2 C 0.3 km/h (0 Bft)
06.12.2010 11:00 1.3 C 98 % 999.3 hPa 2.4 l/m 0.2 km/h (0 Bft) O-SO 0.00 h 37 W/m 1.1 C 1.3 C 0.6 km/h (0 Bft)
06.12.2010 12:00 1.4 C 98 % 998.8 hPa 1.6 l/m 0.3 km/h (0 Bft) O-SO 0.00 h 54 W/m 1.1 C 1.4 C 1.0 km/h (0 Bft)
06.12.2010 13:00 1.8 C 98 % 998.3 hPa 1.2 l/m 0.0 km/h (0 Bft) N 0.00 h 53 W/m 1.5 C 1.8 C 0.0 km/h (0 Bft)
06.12.2010 14:00 2.1 C 98 % 997.7 hPa 0.4 l/m 0.0 km/h (0 Bft) N 0.00 h 28 W/m 1.8 C 2.1 C 0.0 km/h (0 Bft)
06.12.2010 15:00 1.7 C 98 % 997.8 hPa 1.0 l/m 0.0 km/h (0 Bft) N 0.00 h 21 W/m 1.4 C 1.7 C 0.1 km/h (0 Bft)
06.12.2010 16:00 1.6 C 98 % 997.6 hPa 0.2 l/m 0.1 km/h (0 Bft) O-SO 0.00 h 10 W/m 1.3 C 1.6 C 0.4 km/h (0 Bft)
06.12.2010 17:00 1.5 C 97 % 997.6 hPa 1.8 l/m 0.0 km/h (0 Bft) N 0.00 h 0 W/m 1.1 C 1.5 C 0.0 km/h (0 Bft)
06.12.2010 18:00 1.4 C 98 % 997.7 hPa 2.4 l/m 0.1 km/h (0 Bft) O-SO 0.00 h 0 W/m 1.1 C 1.4 C 0.4 km/h (0 Bft)
06.12.2010 19:00 1.4 C 98 % 997.7 hPa 1.2 l/m 0.1 km/h (0 Bft) O-SO 0.00 h 0 W/m 1.1 C 1.4 C 0.4 km/h (0 Bft)
06.12.2010 20:00 1.3 C 98 % 997.8 hPa 0.8 l/m 0.0 km/h (0 Bft) O-SO 0.00 h 0 W/m 1.0 C 1.3 C 0.3 km/h (0 Bft)
06.12.2010 21:00 1.4 C 98 % 997.9 hPa 2.0 l/m 0.0 km/h (0 Bft) N 0.00 h 0 W/m 1.1 C 1.4 C 0.2 km/h (0 Bft)
06.12.2010 22:00 1.5 C 98 % 998.1 hPa 1.6 l/m 0.4 km/h (0 Bft) N 0.00 h 0 W/m 1.3 C 1.5 C 1.0 km/h (0 Bft)
06.12.2010 23:00 1.6 C 98 % 998.6 hPa 2.6 l/m 0.2 km/h (0 Bft) N 0.00 h 0 W/m 1.3 C 1.6 C 0.7 km/h (0 Bft)
07.12.2010 00:00 1.7 C 98 % 998.7 hPa 1.4 l/m 0.3 km/h (0 Bft) N 0.00 h 0 W/m 1.5 C 1.7 C 0.9 km/h (0 Bft)
07.12.2010 01:00 2.1 C 98 % 998.7 hPa 0.2 l/m 0.6 km/h (0 Bft) NO 0.00 h 0 W/m 1.9 C 2.1 C 1.8 km/h (1 Bft)
07.12.2010 02:00 2.6 C 99 % 999.2 hPa 2.2 l/m 2.2 km/h (1 Bft) SO 0.00 h 0 W/m 2.5 C 2.4 C 4.1 km/h (1 Bft)
07.12.2010 03:00 3.4 C 99 % 999.6 hPa 0.2 l/m 2.5 km/h (1 Bft) O-SO 0.00 h 0 W/m 3.2 C 3.2 C 4.3 km/h (1 Bft)
07.12.2010 04:00 2.9 C 99 % 1000.0 hPa 0.0 l/m 1.4 km/h (1 Bft) N-NO 0.00 h 0 W/m 2.8 C 2.8 C 2.9 km/h (1 Bft)
07.12.2010 05:00 2.6 C 99 % 1000.4 hPa 0.0 l/m 1.8 km/h (1 Bft) S-SO 0.00 h 0 W/m 2.5 C 2.5 C 3.3 km/h (1 Bft)
07.12.2010 06:00 2.7 C 99 % 1000.8 hPa 0.0 l/m 1.2 km/h (1 Bft) N 0.00 h 0 W/m 2.6 C 2.7 C 2.7 km/h (1 Bft)
07.12.2010 07:00 3.4 C 99 % 1001.0 hPa 0.0 l/m 0.7 km/h (0 Bft) O 0.00 h 0 W/m 3.3 C 3.4 C 1.5 km/h (1 Bft)
07.12.2010 08:00 2.0 C 99 % 1001.7 hPa 0.0 l/m 0.9 km/h (0 Bft) O-SO 0.00 h 16 W/m 1.8 C 1.9 C 1.5 km/h (1 Bft)
07.12.2010 09:00 1.9 C 99 % 1002.1 hPa 0.0 l/m 1.1 km/h (1 Bft) O-SO 0.37 h 78 W/m 1.8 C 1.8 C 1.6 km/h (1 Bft)
07.12.2010 10:00 2.2 C 99 % 1002.5 hPa 0.0 l/m 0.7 km/h (0 Bft) O-SO 0.05 h 102 W/m 2.1 C 2.2 C 1.3 km/h (1 Bft)
07.12.2010 11:00 3.0 C 99 % 1002.4 hPa 0.0 l/m 0.1 km/h (0 Bft) O-SO 0.22 h 154 W/m 2.8 C 3.0 C 0.6 km/h (0 Bft)
07.12.2010 12:00 3.7 C 99 % 1001.8 hPa 0.0 l/m 0.2 km/h (0 Bft) O-SO 0.48 h 196 W/m 3.6 C 3.7 C 0.3 km/h (0 Bft)
07.12.2010 13:00 4.5 C 99 % 1000.8 hPa 0.0 l/m 0.1 km/h (0 Bft) O-SO 0.40 h 139 W/m 4.4 C 4.5 C 0.6 km/h (0 Bft)
07.12.2010 14:00 4.5 C 99 % 1000.8 hPa 0.0 l/m 0.9 km/h (0 Bft) O-SO 0.00 h 64 W/m 4.4 C 4.4 C 1.6 km/h (1 Bft)
07.12.2010 15:00 4.3 C 99 % 1000.9 hPa 0.0 l/m 3.0 km/h (1 Bft) O-SO 0.00 h 33 W/m 4.2 C 3.8 C 3.8 km/h (1 Bft)
07.12.2010 16:00 4.1 C 99 % 1000.5 hPa 0.0 l/m 1.6 km/h (1 Bft) O-SO 0.00 h 10 W/m 3.9 C 3.8 C 2.6 km/h (1 Bft)
07.12.2010 17:00 3.8 C 99 % 1000.7 hPa 0.0 l/m 3.3 km/h (1 Bft) O-SO 0.00 h 0 W/m 3.6 C 3.2 C 4.6 km/h (1 Bft)
07.12.2010 18:00 3.2 C 99 % 1001.3 hPa 0.6 l/m 2.2 km/h (1 Bft) O-SO 0.00 h 0 W/m 3.0 C 2.9 C 3.3 km/h (1 Bft)
07.12.2010 19:00 3.4 C 99 % 1001.9 hPa 1.0 l/m 0.6 km/h (0 Bft) O-SO 0.00 h 0 W/m 3.2 C 3.4 C 1.2 km/h (1 Bft)
07.12.2010 20:00 3.4 C 99 % 1002.4 hPa 2.0 l/m 1.2 km/h (1 Bft) O 0.00 h 0 W/m 3.2 C 3.2 C 2.5 km/h (1 Bft)
07.12.2010 21:00 3.2 C 99 % 1002.8 hPa 0.4 l/m 2.9 km/h (1 Bft) SO 0.00 h 0 W/m 3.0 C 2.8 C 4.8 km/h (1 Bft)
07.12.2010 22:00 3.4 C 99 % 1003.1 hPa 0.4 l/m 2.4 km/h (1 Bft) SO 0.00 h 0 W/m 3.3 C 3.0 C 3.7 km/h (1 Bft)
07.12.2010 23:00 3.1 C 99 % 1003.2 hPa 1.4 l/m 1.2 km/h (1 Bft) SO 0.00 h 0 W/m 3.0 C 3.0 C 2.3 km/h (1 Bft)
08.12.2010 00:00 3.2 C 99 % 1003.8 hPa 1.6 l/m 1.2 km/h (1 Bft) SO 0.00 h 0 W/m 3.0 C 3.1 C 2.2 km/h (1 Bft)
08.12.2010 01:00 3.0 C 99 % 1003.8 hPa 0.4 l/m 2.2 km/h (1 Bft) O 0.00 h 0 W/m 2.8 C 2.6 C 3.4 km/h (1 Bft)
08.12.2010 02:00 2.8 C 99 % 1004.0 hPa 0.0 l/m 2.0 km/h (1 Bft) O-SO 0.00 h 0 W/m 2.7 C 2.5 C 2.9 km/h (1 Bft)
08.12.2010 03:00 2.7 C 99 % 1003.9 hPa 0.0 l/m 0.6 km/h (0 Bft) O-SO 0.00 h 0 W/m 2.6 C 2.7 C 0.9 km/h (0 Bft)
08.12.2010 04:00 2.8 C 99 % 1003.9 hPa 1.6 l/m 0.8 km/h (0 Bft) O 0.00 h 0 W/m 2.6 C 2.7 C 1.6 km/h (1 Bft)
08.12.2010 05:00 2.7 C 99 % 1003.8 hPa 2.8 l/m 1.5 km/h (1 Bft) SO 0.00 h 0 W/m 2.6 C 2.5 C 2.4 km/h (1 Bft)
08.12.2010 06:00 2.7 C 99 % 1003.4 hPa 0.0 l/m 1.1 km/h (1 Bft) SO 0.00 h 0 W/m 2.6 C 2.6 C 2.1 km/h (1 Bft)
08.12.2010 07:00 2.9 C 99 % 1003.2 hPa 0.0 l/m 2.0 km/h (1 Bft) SO 0.00 h 0 W/m 2.7 C 2.7 C 2.9 km/h (1 Bft)
08.12.2010 08:00 2.9 C 99 % 1003.2 hPa 0.0 l/m 0.2 km/h (0 Bft) O-SO 0.00 h 18 W/m 2.8 C 2.9 C 0.7 km/h (0 Bft)
08.12.2010 09:00 2.8 C 99 % 1003.4 hPa 0.0 l/m 1.7 km/h (1 Bft) O-SO 0.35 h 62 W/m 2.6 C 2.6 C 2.8 km/h (1 Bft)
08.12.2010 10:00 3.3 C 99 % 1003.5 hPa 0.2 l/m 1.8 km/h (1 Bft) O-SO 0.00 h 38 W/m 3.2 C 3.1 C 3.4 km/h (1 Bft)
08.12.2010 11:00 3.9 C 100 % 1003.5 hPa 0.0 l/m 1.7 km/h (1 Bft) O-SO 0.00 h 46 W/m 3.9 C 3.6 C 2.7 km/h (1 Bft)
08.12.2010 12:00 4.4 C 99 % 1003.4 hPa 0.0 l/m 1.2 km/h (1 Bft) O-NO 0.00 h 52 W/m 4.3 C 4.3 C 2.2 km/h (1 Bft)
08.12.2010 13:00 5.0 C 100 % 1002.8 hPa 0.0 l/m 0.4 km/h (0 Bft) O-SO 0.00 h 71 W/m 5.0 C 5.0 C 1.1 km/h (0 Bft)
08.12.2010 14:00 4.6 C 100 % 1002.7 hPa 0.0 l/m 0.2 km/h (0 Bft) O-SO 0.00 h 60 W/m 4.5 C 4.6 C 0.6 km/h (0 Bft)
08.12.2010 15:00 4.4 C 99 % 1002.6 hPa 0.0 l/m 0.3 km/h (0 Bft) O 0.00 h 32 W/m 4.3 C 4.4 C 1.1 km/h (0 Bft)
08.12.2010 16:00 4.4 C 100 % 1002.3 hPa 0.2 l/m 1.3 km/h (1 Bft) N-NW 0.00 h 11 W/m 4.3 C 4.2 C 2.4 km/h (1 Bft)
08.12.2010 17:00 3.8 C 100 % 1002.1 hPa 0.0 l/m 0.6 km/h (0 Bft) NO 0.00 h 0 W/m 3.8 C 3.8 C 1.5 km/h (1 Bft)
08.12.2010 18:00 4.3 C 100 % 1002.1 hPa 0.6 l/m 2.4 km/h (1 Bft) NO 0.00 h 0 W/m 4.3 C 4.0 C 4.8 km/h (1 Bft)
08.12.2010 19:00 6.2 C 100 % 1002.4 hPa 0.6 l/m 4.0 km/h (1 Bft) S 0.00 h 0 W/m 6.2 C 5.7 C 6.8 km/h (2 Bft)
08.12.2010 20:00 8.3 C 100 % 1002.3 hPa 0.0 l/m 9.9 km/h (2 Bft) S 0.00 h 0 W/m 8.3 C 6.8 C 17.2 km/h (3 Bft)
08.12.2010 21:00 9.0 C 99 % 1003.0 hPa 2.4 l/m 13.8 km/h (3 Bft) S-SW 0.00 h 0 W/m 8.9 C 6.9 C 22.6 km/h (4 Bft)
08.12.2010 22:00 8.9 C 99 % 1004.8 hPa 1.4 l/m 20.2 km/h (4 Bft) W 0.00 h 0 W/m 8.7 C 6.1 C 29.2 km/h (5 Bft)
08.12.2010 23:00 7.3 C 97 % 1006.5 hPa 1.0 l/m 22.0 km/h (4 Bft) W 0.00 h 0 W/m 6.8 C 3.8 C 31.5 km/h (5 Bft)
09.12.2010 00:00 5.6 C 94 % 1008.7 hPa 0.4 l/m 19.1 km/h (3 Bft) W 0.00 h 0 W/m 4.7 C 1.9 C 27.9 km/h (4 Bft)
09.12.2010 01:00 3.9 C 92 % 1011.1 hPa 0.0 l/m 8.7 km/h (2 Bft) W 0.00 h 0 W/m 2.8 C 1.8 C 13.3 km/h (3 Bft)
09.12.2010 02:00 2.7 C 94 % 1013.6 hPa 0.0 l/m 8.8 km/h (2 Bft) W 0.00 h 0 W/m 1.8 C 0.3 C 14.0 km/h (3 Bft)
09.12.2010 03:00 2.1 C 95 % 1015.4 hPa 0.0 l/m 11.2 km/h (2 Bft) W 0.00 h 0 W/m 1.3 C -1.1 C 17.6 km/h (3 Bft)
09.12.2010 04:00 1.7 C 95 % 1017.3 hPa 0.0 l/m 4.6 km/h (1 Bft) SW 0.00 h 0 W/m 1.0 C 0.6 C 7.7 km/h (2 Bft)
09.12.2010 05:00 1.4 C 95 % 1019.3 hPa 0.0 l/m 3.9 km/h (1 Bft) W-NW 0.00 h 0 W/m 0.6 C 0.5 C 6.8 km/h (2 Bft)
09.12.2010 06:00 1.2 C 92 % 1021.2 hPa 0.0 l/m 2.7 km/h (1 Bft) W 0.00 h 0 W/m 0.1 C 1.0 C 4.9 km/h (1 Bft)
09.12.2010 07:00 0.5 C 91 % 1022.3 hPa 0.0 l/m 1.6 km/h (1 Bft) S-SO 0.00 h 0 W/m -0.7 C 0.4 C 3.1 km/h (1 Bft)
09.12.2010 08:00 0.2 C 92 % 1023.8 hPa 0.0 l/m 3.9 km/h (1 Bft) SW 0.00 h 17 W/m -1.0 C -0.5 C 6.0 km/h (2 Bft)
09.12.2010 09:00 0.5 C 88 % 1024.6 hPa 0.0 l/m 3.5 km/h (1 Bft) W-SW 0.33 h 72 W/m -1.3 C -0.3 C 5.8 km/h (2 Bft)
09.12.2010 10:00 1.0 C 85 % 1025.1 hPa 0.0 l/m 8.3 km/h (2 Bft) W-SW 0.00 h 62 W/m -1.1 C -1.4 C 12.9 km/h (3 Bft)
09.12.2010 11:00 1.0 C 88 % 1025.6 hPa 0.0 l/m 8.1 km/h (2 Bft) W-SW 0.02 h 95 W/m -0.8 C -1.5 C 12.7 km/h (3 Bft)
09.12.2010 12:00 1.3 C 87 % 1026.1 hPa 0.0 l/m 5.8 km/h (2 Bft) W 0.03 h 98 W/m -0.6 C -0.2 C 9.7 km/h (2 Bft)
09.12.2010 13:00 2.1 C 83 % 1026.3 hPa 0.0 l/m 9.6 km/h (2 Bft) W-SW 0.58 h 231 W/m -0.5 C -0.6 C 15.4 km/h (3 Bft)
09.12.2010 14:00 2.1 C 82 % 1026.4 hPa 0.0 l/m 11.1 km/h (2 Bft) W 0.95 h 196 W/m -0.6 C -1.0 C 17.5 km/h (3 Bft)
09.12.2010 15:00 1.4 C 85 % 1027.4 hPa 0.0 l/m 6.8 km/h (2 Bft) W 0.07 h 35 W/m -0.8 C -0.5 C 11.1 km/h (2 Bft)
09.12.2010 16:00 0.8 C 84 % 1028.2 hPa 0.0 l/m 10.6 km/h (2 Bft) W-NW 0.37 h 22 W/m -1.6 C -2.0 C 16.6 km/h (3 Bft)
09.12.2010 17:00 0.6 C 82 % 1029.1 hPa 0.0 l/m 11.8 km/h (2 Bft) W-NW 0.00 h 0 W/m -2.2 C -2.9 C 18.2 km/h (3 Bft)
09.12.2010 18:00 0.5 C 80 % 1029.9 hPa 0.0 l/m 7.6 km/h (2 Bft) W 0.00 h 0 W/m -2.6 C -1.8 C 12.1 km/h (2 Bft)
09.12.2010 19:00 0.6 C 80 % 1030.6 hPa 0.0 l/m 11.1 km/h (2 Bft) W 0.00 h 0 W/m -2.4 C -2.8 C 17.2 km/h (3 Bft)
09.12.2010 20:00 0.6 C 82 % 1031.1 hPa 0.0 l/m 12.3 km/h (3 Bft) W 0.00 h 0 W/m -2.0 C -3.0 C 18.6 km/h (3 Bft)
09.12.2010 21:00 0.7 C 81 % 1031.5 hPa 0.0 l/m 10.4 km/h (2 Bft) W 0.00 h 0 W/m -2.2 C -2.5 C 16.5 km/h (3 Bft)
09.12.2010 22:00 0.5 C 83 % 1031.9 hPa 0.0 l/m 11.1 km/h (2 Bft) W-NW 0.00 h 0 W/m -2.0 C -2.9 C 17.4 km/h (3 Bft)
09.12.2010 23:00 0.3 C 86 % 1032.1 hPa 0.0 l/m 10.0 km/h (2 Bft) W 0.00 h 0 W/m -1.8 C -2.9 C 15.4 km/h (3 Bft)
10.12.2010 00:00 0.2 C 86 % 1032.1 hPa 0.0 l/m 7.7 km/h (2 Bft) W 0.00 h 0 W/m -1.9 C -2.3 C 12.3 km/h (3 Bft)
10.12.2010 01:00 0.3 C 83 % 1031.6 hPa 0.0 l/m 5.9 km/h (2 Bft) SW 0.00 h 0 W/m -2.1 C -1.4 C 9.4 km/h (2 Bft)
10.12.2010 02:00 0.4 C 82 % 1031.3 hPa 0.0 l/m 7.3 km/h (2 Bft) W-NW 0.00 h 0 W/m -2.3 C -1.9 C 11.3 km/h (2 Bft)
10.12.2010 03:00 0.4 C 83 % 1031.4 hPa 0.0 l/m 9.9 km/h (2 Bft) W 0.00 h 0 W/m -2.1 C -2.7 C 15.6 km/h (3 Bft)
10.12.2010 04:00 0.3 C 84 % 1031.0 hPa 0.0 l/m 8.2 km/h (2 Bft) W 0.00 h 0 W/m -2.1 C -2.2 C 13.4 km/h (3 Bft)
10.12.2010 05:00 0.4 C 83 % 1031.0 hPa 0.0 l/m 9.8 km/h (2 Bft) W 0.00 h 0 W/m -2.2 C -2.7 C 15.5 km/h (3 Bft)
10.12.2010 06:00 0.6 C 82 % 1031.2 hPa 0.0 l/m 8.2 km/h (2 Bft) W 0.00 h 0 W/m -2.1 C -1.9 C 13.0 km/h (3 Bft)
10.12.2010 07:00 0.7 C 80 % 1031.8 hPa 0.0 l/m 10.0 km/h (2 Bft) W 0.00 h 0 W/m -2.3 C -2.3 C 16.2 km/h (3 Bft)
10.12.2010 08:00 0.7 C 80 % 1032.4 hPa 0.0 l/m 6.3 km/h (2 Bft) W-SW 0.00 h 10 W/m -2.3 C -1.0 C 10.2 km/h (2 Bft)
10.12.2010 09:00 0.7 C 84 % 1033.3 hPa 0.0 l/m 6.7 km/h (2 Bft) W 0.00 h 26 W/m -1.7 C -1.3 C 10.8 km/h (2 Bft)
10.12.2010 10:00 0.7 C 86 % 1033.6 hPa 0.0 l/m 6.3 km/h (2 Bft) W-SW 0.00 h 47 W/m -1.4 C -1.1 C 10.0 km/h (2 Bft)
10.12.2010 11:00 0.9 C 87 % 1033.2 hPa 0.0 l/m 5.7 km/h (1 Bft) W 0.00 h 52 W/m -1.1 C -0.7 C 8.7 km/h (2 Bft)
10.12.2010 12:00 1.1 C 88 % 1033.4 hPa 0.0 l/m 1.0 km/h (0 Bft) N-NW 0.00 h 28 W/m -0.7 C 1.0 C 2.5 km/h (1 Bft)
10.12.2010 13:00 1.3 C 88 % 1033.7 hPa 0.0 l/m 4.8 km/h (1 Bft) W-NW 0.00 h 20 W/m -0.6 C 0.1 C 7.7 km/h (2 Bft)
10.12.2010 14:00 1.0 C 91 % 1033.7 hPa 0.0 l/m 2.9 km/h (1 Bft) W 0.00 h 24 W/m -0.3 C 0.5 C 5.1 km/h (1 Bft)
10.12.2010 15:00 0.9 C 93 % 1033.7 hPa 0.0 l/m 2.0 km/h (1 Bft) S 0.00 h 11 W/m -0.0 C 0.9 C 4.3 km/h (1 Bft)
10.12.2010 16:00 1.0 C 94 % 1033.9 hPa 0.0 l/m 2.7 km/h (1 Bft) S-SO 0.00 h 5 W/m 0.1 C 0.9 C 4.9 km/h (1 Bft)
10.12.2010 17:00 1.2 C 93 % 1033.8 hPa 0.0 l/m 2.0 km/h (1 Bft) S 0.00 h 0 W/m 0.2 C 1.2 C 4.1 km/h (1 Bft)
10.12.2010 18:00 1.3 C 93 % 1033.7 hPa 0.0 l/m 2.1 km/h (1 Bft) S-SO 0.00 h 0 W/m 0.3 C 1.2 C 4.2 km/h (1 Bft)
10.12.2010 19:00 1.2 C 94 % 1033.7 hPa 0.0 l/m 1.8 km/h (1 Bft) S-SO 0.00 h 0 W/m 0.3 C 0.9 C 3.9 km/h (1 Bft)
10.12.2010 20:00 1.2 C 94 % 1033.4 hPa 0.0 l/m 2.6 km/h (1 Bft) S-SW 0.00 h 0 W/m 0.4 C 1.1 C 4.8 km/h (1 Bft)
10.12.2010 21:00 1.4 C 94 % 1032.8 hPa 0.0 l/m 2.3 km/h (1 Bft) W-NW 0.00 h 0 W/m 0.5 C 0.9 C 4.0 km/h (1 Bft)
10.12.2010 22:00 2.0 C 92 % 1031.9 hPa 0.0 l/m 4.4 km/h (1 Bft) W-NW 0.00 h 0 W/m 0.9 C 1.1 C 6.8 km/h (2 Bft)
10.12.2010 23:00 2.0 C 92 % 1031.4 hPa 0.0 l/m 4.0 km/h (1 Bft) SW 0.00 h 0 W/m 0.8 C 1.4 C 6.2 km/h (2 Bft)
11.12.2010 00:00 2.1 C 92 % 1030.6 hPa 0.0 l/m 3.2 km/h (1 Bft) SW 0.00 h 0 W/m 0.9 C 1.8 C 5.7 km/h (1 Bft)
11.12.2010 01:00 2.3 C 92 % 1029.9 hPa 0.0 l/m 6.0 km/h (2 Bft) W 0.00 h 0 W/m 1.1 C 0.9 C 9.7 km/h (2 Bft)
11.12.2010 02:00 2.6 C 92 % 1029.4 hPa 0.0 l/m 10.0 km/h (2 Bft) W 0.00 h 0 W/m 1.4 C -0.1 C 15.8 km/h (3 Bft)
11.12.2010 03:00 2.8 C 91 % 1028.8 hPa 0.0 l/m 8.9 km/h (2 Bft) W 0.00 h 0 W/m 1.4 C 0.4 C 13.8 km/h (3 Bft)
11.12.2010 04:00 3.0 C 88 % 1028.4 hPa 0.0 l/m 8.4 km/h (2 Bft) W 0.00 h 0 W/m 1.3 C 0.9 C 13.4 km/h (3 Bft)
11.12.2010 05:00 3.1 C 87 % 1027.6 hPa 0.0 l/m 5.3 km/h (1 Bft) SW 0.00 h 0 W/m 1.0 C 2.1 C 8.3 km/h (2 Bft)
11.12.2010 06:00 2.7 C 87 % 1027.7 hPa 0.0 l/m 7.2 km/h (2 Bft) SW 0.00 h 0 W/m 0.8 C 0.7 C 11.0 km/h (2 Bft)
11.12.2010 07:00 1.9 C 93 % 1028.1 hPa 0.0 l/m 7.3 km/h (2 Bft) SW 0.00 h 0 W/m 0.8 C -0.2 C 10.6 km/h (2 Bft)
11.12.2010 08:00 2.0 C 92 % 1027.8 hPa 0.0 l/m 6.8 km/h (2 Bft) S-SW 0.00 h 0 W/m 0.9 C 0.1 C 12.2 km/h (2 Bft)
11.12.2010 09:00 2.6 C 88 % 1027.6 hPa 0.0 l/m 7.1 km/h (2 Bft) S-SW 0.00 h 12 W/m 0.8 C 0.7 C 12.5 km/h (3 Bft)
11.12.2010 10:00 3.4 C 85 % 1027.2 hPa 0.0 l/m 8.4 km/h (2 Bft) SW 0.00 h 34 W/m 1.2 C 1.3 C 13.3 km/h (3 Bft)
11.12.2010 11:00 5.1 C 82 % 1026.6 hPa 0.0 l/m 11.4 km/h (2 Bft) W 0.00 h 91 W/m 2.2 C 2.5 C 17.7 km/h (3 Bft)
11.12.2010 12:00 5.9 C 79 % 1026.2 hPa 0.0 l/m 9.7 km/h (2 Bft) W 0.35 h 155 W/m 2.5 C 3.9 C 15.6 km/h (3 Bft)
11.12.2010 13:00 5.7 C 80 % 1025.0 hPa 0.0 l/m 18.0 km/h (3 Bft) W-NW 0.65 h 210 W/m 2.5 C 2.3 C 27.9 km/h (4 Bft)
11.12.2010 14:00 5.7 C 80 % 1024.2 hPa 0.0 l/m 23.0 km/h (4 Bft) W-NW 0.58 h 137 W/m 2.4 C 1.7 C 34.1 km/h (5 Bft)
11.12.2010 15:00 5.9 C 81 % 1024.0 hPa 0.0 l/m 5.2 km/h (1 Bft) NW 0.95 h 118 W/m 2.9 C 5.1 C 9.9 km/h (2 Bft)
11.12.2010 16:00 4.9 C 84 % 1023.9 hPa 0.0 l/m 5.4 km/h (1 Bft) W-NW 0.02 h 13 W/m 2.5 C 3.9 C 8.7 km/h (2 Bft)
11.12.2010 17:00 4.6 C 86 % 1023.6 hPa 0.0 l/m 6.2 km/h (2 Bft) W 0.00 h 0 W/m 2.5 C 3.3 C 10.0 km/h (2 Bft)
11.12.2010 18:00 4.4 C 88 % 1023.4 hPa 0.0 l/m 9.5 km/h (2 Bft) W-NW 0.00 h 0 W/m 2.6 C 2.2 C 15.0 km/h (3 Bft)
11.12.2010 19:00 4.3 C 88 % 1023.1 hPa 0.0 l/m 6.8 km/h (2 Bft) W-NW 0.00 h 0 W/m 2.5 C 2.7 C 10.8 km/h (2 Bft)
11.12.2010 20:00 4.3 C 86 % 1022.6 hPa 0.0 l/m 6.6 km/h (2 Bft) W-NW 0.00 h 0 W/m 2.2 C 2.9 C 10.4 km/h (2 Bft)
11.12.2010 21:00 4.2 C 86 % 1022.3 hPa 0.0 l/m 6.6 km/h (2 Bft) W 0.00 h 0 W/m 2.2 C 2.8 C 10.3 km/h (2 Bft)
11.12.2010 22:00 4.0 C 87 % 1021.4 hPa 0.0 l/m 10.0 km/h (2 Bft) W 0.00 h 0 W/m 2.0 C 1.5 C 15.6 km/h (3 Bft)
11.12.2010 23:00 3.8 C 86 % 1020.4 hPa 0.0 l/m 9.8 km/h (2 Bft) W 0.00 h 0 W/m 1.8 C 1.4 C 15.4 km/h (3 Bft)
12.12.2010 00:00 3.6 C 88 % 1019.6 hPa 0.0 l/m 8.9 km/h (2 Bft) W 0.00 h 0 W/m 1.8 C 1.4 C 14.0 km/h (3 Bft)
12.12.2010 01:00 3.3 C 90 % 1019.3 hPa 0.0 l/m 9.7 km/h (2 Bft) W 0.00 h 0 W/m 1.8 C 0.9 C 14.4 km/h (3 Bft)
12.12.2010 02:00 2.8 C 94 % 1019.0 hPa 0.2 l/m 7.5 km/h (2 Bft) W 0.00 h 0 W/m 1.9 C 0.8 C 11.1 km/h (2 Bft)
12.12.2010 03:00 2.7 C 94 % 1019.0 hPa 0.0 l/m 2.1 km/h (1 Bft) W 0.00 h 0 W/m 1.8 C 2.5 C 4.0 km/h (1 Bft)
12.12.2010 04:00 2.6 C 94 % 1018.8 hPa 0.0 l/m 1.7 km/h (1 Bft) SO 0.00 h 0 W/m 1.7 C 2.6 C 3.3 km/h (1 Bft)
12.12.2010 05:00 2.6 C 92 % 1018.2 hPa 0.0 l/m 0.5 km/h (0 Bft) SO 0.00 h 0 W/m 1.5 C 2.6 C 1.6 km/h (1 Bft)
12.12.2010 06:00 2.6 C 92 % 1018.1 hPa 0.0 l/m 0.6 km/h (0 Bft) W-SW 0.00 h 0 W/m 1.4 C 2.6 C 1.8 km/h (1 Bft)
12.12.2010 07:00 2.6 C 91 % 1017.7 hPa 0.0 l/m 2.4 km/h (1 Bft) S-SW 0.00 h 0 W/m 1.3 C 2.4 C 4.8 km/h (1 Bft)
12.12.2010 08:00 2.5 C 92 % 1017.5 hPa 0.0 l/m 2.1 km/h (1 Bft) SW 0.00 h 11 W/m 1.2 C 2.3 C 4.2 km/h (1 Bft)
12.12.2010 09:00 2.5 C 92 % 1017.6 hPa 0.0 l/m 1.0 km/h (0 Bft) SW 0.00 h 43 W/m 1.3 C 2.5 C 2.5 km/h (1 Bft)
12.12.2010 10:00 2.9 C 90 % 1017.5 hPa 0.0 l/m 2.6 km/h (1 Bft) W-SW 0.00 h 64 W/m 1.3 C 2.6 C 4.8 km/h (1 Bft)
12.12.2010 11:00 3.4 C 87 % 1016.9 hPa 0.0 l/m 6.6 km/h (2 Bft) W 0.12 h 111 W/m 1.5 C 2.0 C 10.8 km/h (2 Bft)
12.12.2010 12:00 4.0 C 85 % 1016.4 hPa 0.0 l/m 6.7 km/h (2 Bft) W-SW 0.58 h 196 W/m 1.7 C 2.6 C 10.7 km/h (2 Bft)
12.12.2010 13:00 3.8 C 87 % 1016.3 hPa 0.0 l/m 6.3 km/h (2 Bft) W 0.00 h 80 W/m 1.8 C 2.4 C 9.7 km/h (2 Bft)
12.12.2010 14:00 3.7 C 88 % 1016.0 hPa 0.0 l/m 7.5 km/h (2 Bft) W 0.00 h 71 W/m 2.0 C 1.9 C 11.8 km/h (2 Bft)
12.12.2010 15:00 3.5 C 88 % 1016.2 hPa 0.0 l/m 7.4 km/h (2 Bft) W 0.27 h 53 W/m 1.7 C 1.7 C 11.8 km/h (2 Bft)
12.12.2010 16:00 2.8 C 89 % 1016.4 hPa 0.0 l/m 1.2 km/h (1 Bft) W-SW 0.00 h 13 W/m 1.1 C 2.8 C 2.9 km/h (1 Bft)
12.12.2010 17:00 2.7 C 89 % 1016.5 hPa 0.0 l/m 2.7 km/h (1 Bft) W-SW 0.00 h 0 W/m 1.1 C 2.4 C 5.0 km/h (1 Bft)
12.12.2010 18:00 2.8 C 89 % 1016.5 hPa 0.0 l/m 5.1 km/h (1 Bft) W-NW 0.00 h 0 W/m 1.2 C 1.7 C 8.7 km/h (2 Bft)
12.12.2010 19:00 2.9 C 89 % 1016.5 hPa 0.0 l/m 3.5 km/h (1 Bft) W 0.00 h 0 W/m 1.2 C 2.2 C 6.3 km/h (2 Bft)
12.12.2010 20:00 2.7 C 89 % 1016.6 hPa 0.0 l/m 2.6 km/h (1 Bft) S-SW 0.00 h 0 W/m 1.2 C 2.4 C 4.9 km/h (1 Bft)
12.12.2010 21:00 2.5 C 90 % 1016.7 hPa 0.0 l/m 4.1 km/h (1 Bft) W 0.00 h 0 W/m 1.1 C 1.8 C 7.1 km/h (2 Bft)
12.12.2010 22:00 2.3 C 91 % 1016.7 hPa 0.0 l/m 2.2 km/h (1 Bft) N-NW 0.00 h 0 W/m 1.0 C 2.1 C 4.3 km/h (1 Bft)
12.12.2010 23:00 2.3 C 91 % 1016.6 hPa 0.0 l/m 1.6 km/h (1 Bft) NW 0.00 h 0 W/m 1.0 C 2.2 C 3.3 km/h (1 Bft)
Min-Datum _ 06.12.10 11.12.10 06.12.10 - 06.12.10 - - - 09.12.10 09.12.10 06.12.10
_ Min-Zeit 00:22 12:42 17:00 - 00:00 - - - 18:27 16:57 00:00
Minimum _ 0.0 C 77 % 997.5 hPa - 0.0 km/h (0 Bft) - - - -2.6 C -5.0 C 0.0 km/h (0 Bft)
Max-Datum _ 08.12.10 08.12.10 10.12.10 06.12.10 11.12.10 - 07.12.10 09.12.10 08.12.10 08.12.10 08.12.10
_ Max-Zeit 22:18 09:57 16:00 08:00 14:05 - 09:02 13:27 22:18 22:10 23:16
Maximum _ 9.4 C 100 % 1034.1 hPa 4.4 l/m 41.1 km/h
W-NW (6 Bft)
- 0.02 h 392 W/m 9.3 C 9.1 C 60.8 km/h
W (7 Bft)
Durchschnitt _ 2.5 C 93 % 1014.9 hPa #69.0 l/m 4.5 km/h (1 Bft) W #7:44 h 63 W/m 1.4 C 1.5 C 7.3 km/h (2 Bft)
© Kaiko 2010